sensor_id;sensor_type;location;lat;lon;timestamp;P1;durP1;ratioP1;P2;durP2;ratioP2
22480;SDS011;11407;56.964;-2.212;2023-07-31T00:01:46;1.20;;;1.10;;
22480;SDS011;11407;56.964;-2.212;2023-07-31T00:04:12;1.93;;;1.10;;
22480;SDS011;11407;56.964;-2.212;2023-07-31T00:06:37;2.30;;;1.40;;
22480;SDS011;11407;56.964;-2.212;2023-07-31T00:09:02;2.70;;;1.53;;
22480;SDS011;11407;56.964;-2.212;2023-07-31T00:11:28;3.53;;;1.60;;
22480;SDS011;11407;56.964;-2.212;2023-07-31T00:13:53;2.83;;;1.70;;
22480;SDS011;11407;56.964;-2.212;2023-07-31T00:16:18;1.80;;;1.50;;
22480;SDS011;11407;56.964;-2.212;2023-07-31T00:18:44;1.87;;;1.50;;
22480;SDS011;11407;56.964;-2.212;2023-07-31T00:21:09;2.60;;;1.33;;
22480;SDS011;11407;56.964;-2.212;2023-07-31T00:23:34;3.50;;;1.20;;
22480;SDS011;11407;56.964;-2.212;2023-07-31T00:26:00;2.13;;;1.20;;
22480;SDS011;11407;56.964;-2.212;2023-07-31T00:28:25;2.37;;;1.50;;
22480;SDS011;11407;56.964;-2.212;2023-07-31T00:30:50;4.27;;;1.60;;
22480;SDS011;11407;56.964;-2.212;2023-07-31T00:33:16;1.40;;;1.30;;
22480;SDS011;11407;56.964;-2.212;2023-07-31T00:35:41;3.63;;;1.33;;
22480;SDS011;11407;56.964;-2.212;2023-07-31T00:38:06;1.80;;;1.50;;
22480;SDS011;11407;56.964;-2.212;2023-07-31T00:40:35;3.60;;;1.20;;
22480;SDS011;11407;56.964;-2.212;2023-07-31T00:43:01;2.20;;;1.40;;
22480;SDS011;11407;56.964;-2.212;2023-07-31T00:45:27;1.77;;;1.50;;
22480;SDS011;11407;56.964;-2.212;2023-07-31T00:47:53;3.10;;;1.60;;
22480;SDS011;11407;56.964;-2.212;2023-07-31T00:50:18;2.23;;;1.17;;
22480;SDS011;11407;56.964;-2.212;2023-07-31T00:52:44;2.87;;;1.23;;
22480;SDS011;11407;56.964;-2.212;2023-07-31T00:55:09;1.80;;;1.30;;
22480;SDS011;11407;56.964;-2.212;2023-07-31T00:57:34;3.27;;;1.10;;
22480;SDS011;11407;56.964;-2.212;2023-07-31T01:00:01;2.70;;;1.17;;
22480;SDS011;11407;56.964;-2.212;2023-07-31T01:02:28;2.83;;;1.40;;
22480;SDS011;11407;56.964;-2.212;2023-07-31T01:04:53;1.53;;;1.20;;
22480;SDS011;11407;56.964;-2.212;2023-07-31T01:07:21;2.40;;;1.20;;
22480;SDS011;11407;56.964;-2.212;2023-07-31T01:09:49;2.37;;;1.23;;
22480;SDS011;11407;56.964;-2.212;2023-07-31T01:12:16;2.07;;;1.00;;
22480;SDS011;11407;56.964;-2.212;2023-07-31T01:15:03;1.77;;;1.00;;
22480;SDS011;11407;56.964;-2.212;2023-07-31T01:17:28;2.40;;;1.20;;
22480;SDS011;11407;56.964;-2.212;2023-07-31T01:19:53;3.70;;;1.20;;
22480;SDS011;11407;56.964;-2.212;2023-07-31T01:27:39;2.80;;;1.20;;
22480;SDS011;11407;56.964;-2.212;2023-07-31T01:30:15;2.07;;;1.13;;
22480;SDS011;11407;56.964;-2.212;2023-07-31T01:32:42;1.63;;;0.93;;
22480;SDS011;11407;56.964;-2.212;2023-07-31T01:35:08;1.87;;;1.47;;
22480;SDS011;11407;56.964;-2.212;2023-07-31T01:37:34;1.53;;;1.30;;
22480;SDS011;11407;56.964;-2.212;2023-07-31T01:39:59;2.00;;;1.53;;
22480;SDS011;11407;56.964;-2.212;2023-07-31T01:42:24;1.93;;;1.30;;
22480;SDS011;11407;56.964;-2.212;2023-07-31T01:44:49;1.73;;;1.20;;
22480;SDS011;11407;56.964;-2.212;2023-07-31T01:47:15;1.27;;;1.00;;
22480;SDS011;11407;56.964;-2.212;2023-07-31T01:49:40;2.43;;;1.20;;
22480;SDS011;11407;56.964;-2.212;2023-07-31T01:52:06;1.67;;;1.10;;
22480;SDS011;11407;56.964;-2.212;2023-07-31T01:54:31;1.37;;;1.10;;
22480;SDS011;11407;56.964;-2.212;2023-07-31T01:56:56;1.20;;;1.00;;
22480;SDS011;11407;56.964;-2.212;2023-07-31T01:59:21;2.23;;;1.00;;
22480;SDS011;11407;56.964;-2.212;2023-07-31T02:01:47;1.63;;;1.03;;
22480;SDS011;11407;56.964;-2.212;2023-07-31T02:04:12;2.97;;;0.90;;
22480;SDS011;11407;56.964;-2.212;2023-07-31T02:06:39;3.13;;;1.20;;
22480;SDS011;11407;56.964;-2.212;2023-07-31T02:09:04;1.70;;;1.30;;
22480;SDS011;11407;56.964;-2.212;2023-07-31T02:11:29;1.53;;;1.00;;
22480;SDS011;11407;56.964;-2.212;2023-07-31T02:13:55;1.40;;;1.20;;
22480;SDS011;11407;56.964;-2.212;2023-07-31T02:16:20;2.60;;;1.30;;
22480;SDS011;11407;56.964;-2.212;2023-07-31T02:18:45;4.20;;;1.30;;
22480;SDS011;11407;56.964;-2.212;2023-07-31T02:21:10;1.57;;;1.10;;
22480;SDS011;11407;56.964;-2.212;2023-07-31T02:23:36;2.00;;;1.00;;
22480;SDS011;11407;56.964;-2.212;2023-07-31T02:26:01;3.33;;;0.97;;
22480;SDS011;11407;56.964;-2.212;2023-07-31T02:28:26;2.03;;;1.00;;
22480;SDS011;11407;56.964;-2.212;2023-07-31T02:30:51;1.27;;;1.00;;
22480;SDS011;11407;56.964;-2.212;2023-07-31T02:33:17;0.93;;;0.90;;
22480;SDS011;11407;56.964;-2.212;2023-07-31T02:35:42;2.23;;;1.03;;
22480;SDS011;11407;56.964;-2.212;2023-07-31T02:38:07;1.40;;;1.07;;
22480;SDS011;11407;56.964;-2.212;2023-07-31T02:40:33;2.10;;;1.20;;
22480;SDS011;11407;56.964;-2.212;2023-07-31T02:42:58;1.00;;;0.93;;
22480;SDS011;11407;56.964;-2.212;2023-07-31T02:45:23;1.53;;;1.23;;
22480;SDS011;11407;56.964;-2.212;2023-07-31T02:47:49;2.73;;;1.10;;
22480;SDS011;11407;56.964;-2.212;2023-07-31T02:50:14;1.87;;;1.10;;
22480;SDS011;11407;56.964;-2.212;2023-07-31T02:52:39;2.57;;;1.10;;
22480;SDS011;11407;56.964;-2.212;2023-07-31T02:55:05;4.07;;;1.13;;
22480;SDS011;11407;56.964;-2.212;2023-07-31T02:57:30;2.13;;;1.00;;
22480;SDS011;11407;56.964;-2.212;2023-07-31T02:59:56;1.13;;;0.90;;
22480;SDS011;11407;56.964;-2.212;2023-07-31T03:02:21;1.87;;;1.10;;
22480;SDS011;11407;56.964;-2.212;2023-07-31T03:04:46;2.23;;;1.33;;
22480;SDS011;11407;56.964;-2.212;2023-07-31T03:07:11;2.50;;;1.17;;
22480;SDS011;11407;56.964;-2.212;2023-07-31T03:09:37;2.03;;;1.10;;
22480;SDS011;11407;56.964;-2.212;2023-07-31T03:12:02;2.33;;;1.00;;
22480;SDS011;11407;56.964;-2.212;2023-07-31T03:14:28;1.53;;;1.10;;
22480;SDS011;11407;56.964;-2.212;2023-07-31T03:16:53;3.53;;;1.07;;
22480;SDS011;11407;56.964;-2.212;2023-07-31T03:19:19;1.10;;;1.00;;
22480;SDS011;11407;56.964;-2.212;2023-07-31T03:21:44;1.93;;;1.13;;
22480;SDS011;11407;56.964;-2.212;2023-07-31T03:24:09;2.73;;;1.23;;
22480;SDS011;11407;56.964;-2.212;2023-07-31T03:26:34;3.90;;;1.20;;
22480;SDS011;11407;56.964;-2.212;2023-07-31T03:29:01;1.57;;;1.10;;
22480;SDS011;11407;56.964;-2.212;2023-07-31T03:31:26;1.70;;;1.17;;
22480;SDS011;11407;56.964;-2.212;2023-07-31T03:33:51;1.73;;;1.20;;
22480;SDS011;11407;56.964;-2.212;2023-07-31T03:36:17;1.77;;;0.87;;
22480;SDS011;11407;56.964;-2.212;2023-07-31T03:38:42;2.17;;;1.00;;
22480;SDS011;11407;56.964;-2.212;2023-07-31T03:41:07;1.67;;;0.90;;
22480;SDS011;11407;56.964;-2.212;2023-07-31T03:43:32;2.03;;;1.20;;
22480;SDS011;11407;56.964;-2.212;2023-07-31T03:46:01;2.07;;;1.10;;
22480;SDS011;11407;56.964;-2.212;2023-07-31T03:48:27;2.07;;;1.40;;
22480;SDS011;11407;56.964;-2.212;2023-07-31T03:50:52;1.67;;;1.20;;
22480;SDS011;11407;56.964;-2.212;2023-07-31T03:53:18;1.60;;;1.20;;
22480;SDS011;11407;56.964;-2.212;2023-07-31T03:55:43;2.60;;;1.17;;
22480;SDS011;11407;56.964;-2.212;2023-07-31T03:58:08;2.50;;;1.37;;
22480;SDS011;11407;56.964;-2.212;2023-07-31T04:00:34;2.17;;;1.30;;
22480;SDS011;11407;56.964;-2.212;2023-07-31T04:02:59;2.13;;;1.20;;
22480;SDS011;11407;56.964;-2.212;2023-07-31T04:05:24;2.43;;;1.07;;
22480;SDS011;11407;56.964;-2.212;2023-07-31T04:07:49;2.30;;;1.13;;
22480;SDS011;11407;56.964;-2.212;2023-07-31T04:10:15;2.53;;;1.20;;
22480;SDS011;11407;56.964;-2.212;2023-07-31T04:12:40;1.33;;;1.13;;
22480;SDS011;11407;56.964;-2.212;2023-07-31T04:15:06;2.13;;;1.37;;
22480;SDS011;11407;56.964;-2.212;2023-07-31T04:17:31;2.53;;;1.23;;
22480;SDS011;11407;56.964;-2.212;2023-07-31T04:19:56;1.30;;;1.20;;
22480;SDS011;11407;56.964;-2.212;2023-07-31T04:22:21;2.03;;;1.33;;
22480;SDS011;11407;56.964;-2.212;2023-07-31T04:24:47;2.40;;;1.67;;
22480;SDS011;11407;56.964;-2.212;2023-07-31T04:27:12;1.67;;;1.43;;
22480;SDS011;11407;56.964;-2.212;2023-07-31T04:29:37;2.03;;;1.30;;
22480;SDS011;11407;56.964;-2.212;2023-07-31T04:32:04;3.00;;;1.40;;
22480;SDS011;11407;56.964;-2.212;2023-07-31T04:34:30;2.83;;;1.40;;
22480;SDS011;11407;56.964;-2.212;2023-07-31T04:36:55;1.70;;;1.43;;
22480;SDS011;11407;56.964;-2.212;2023-07-31T04:39:20;4.10;;;1.30;;
22480;SDS011;11407;56.964;-2.212;2023-07-31T04:41:45;3.47;;;1.47;;
22480;SDS011;11407;56.964;-2.212;2023-07-31T04:44:11;2.87;;;1.43;;
22480;SDS011;11407;56.964;-2.212;2023-07-31T04:46:36;3.73;;;1.40;;
22480;SDS011;11407;56.964;-2.212;2023-07-31T04:49:02;2.03;;;1.30;;
22480;SDS011;11407;56.964;-2.212;2023-07-31T04:51:28;2.27;;;1.30;;
22480;SDS011;11407;56.964;-2.212;2023-07-31T04:53:53;2.27;;;1.50;;
22480;SDS011;11407;56.964;-2.212;2023-07-31T04:56:18;2.20;;;1.30;;
22480;SDS011;11407;56.964;-2.212;2023-07-31T04:58:43;1.70;;;1.43;;
22480;SDS011;11407;56.964;-2.212;2023-07-31T05:01:09;5.17;;;1.63;;
22480;SDS011;11407;56.964;-2.212;2023-07-31T05:03:34;2.97;;;1.40;;
22480;SDS011;11407;56.964;-2.212;2023-07-31T05:05:59;2.60;;;1.53;;
22480;SDS011;11407;56.964;-2.212;2023-07-31T05:08:25;1.70;;;1.43;;
22480;SDS011;11407;56.964;-2.212;2023-07-31T05:10:50;1.77;;;1.27;;
22480;SDS011;11407;56.964;-2.212;2023-07-31T05:13:15;3.37;;;1.60;;
22480;SDS011;11407;56.964;-2.212;2023-07-31T05:15:40;2.93;;;1.70;;
22480;SDS011;11407;56.964;-2.212;2023-07-31T05:18:06;3.00;;;1.63;;
22480;SDS011;11407;56.964;-2.212;2023-07-31T05:20:31;3.33;;;1.70;;
22480;SDS011;11407;56.964;-2.212;2023-07-31T05:22:56;5.80;;;2.03;;
22480;SDS011;11407;56.964;-2.212;2023-07-31T05:25:22;5.83;;;1.93;;
22480;SDS011;11407;56.964;-2.212;2023-07-31T05:27:47;4.93;;;2.20;;
22480;SDS011;11407;56.964;-2.212;2023-07-31T05:30:12;6.17;;;2.23;;
22480;SDS011;11407;56.964;-2.212;2023-07-31T05:32:37;7.77;;;2.20;;
22480;SDS011;11407;56.964;-2.212;2023-07-31T05:35:03;5.27;;;2.40;;
22480;SDS011;11407;56.964;-2.212;2023-07-31T05:37:28;4.50;;;2.20;;
22480;SDS011;11407;56.964;-2.212;2023-07-31T05:39:53;5.00;;;2.30;;
22480;SDS011;11407;56.964;-2.212;2023-07-31T05:42:19;4.40;;;2.07;;
22480;SDS011;11407;56.964;-2.212;2023-07-31T05:44:44;7.40;;;2.20;;
22480;SDS011;11407;56.964;-2.212;2023-07-31T05:47:09;4.93;;;2.40;;
22480;SDS011;11407;56.964;-2.212;2023-07-31T05:49:35;4.53;;;2.30;;
22480;SDS011;11407;56.964;-2.212;2023-07-31T05:52:00;5.40;;;2.13;;
22480;SDS011;11407;56.964;-2.212;2023-07-31T05:54:25;6.83;;;2.20;;
22480;SDS011;11407;56.964;-2.212;2023-07-31T05:56:51;3.13;;;1.80;;
22480;SDS011;11407;56.964;-2.212;2023-07-31T05:59:16;5.70;;;2.20;;
22480;SDS011;11407;56.964;-2.212;2023-07-31T06:01:41;5.80;;;2.30;;
22480;SDS011;11407;56.964;-2.212;2023-07-31T06:04:07;8.33;;;2.53;;
22480;SDS011;11407;56.964;-2.212;2023-07-31T06:06:32;5.30;;;2.03;;
22480;SDS011;11407;56.964;-2.212;2023-07-31T06:08:57;5.27;;;2.30;;
22480;SDS011;11407;56.964;-2.212;2023-07-31T06:11:22;5.10;;;2.17;;
22480;SDS011;11407;56.964;-2.212;2023-07-31T06:13:48;3.87;;;1.90;;
22480;SDS011;11407;56.964;-2.212;2023-07-31T06:16:14;2.93;;;1.80;;
22480;SDS011;11407;56.964;-2.212;2023-07-31T06:18:39;3.20;;;1.90;;
22480;SDS011;11407;56.964;-2.212;2023-07-31T06:21:05;6.40;;;2.20;;
22480;SDS011;11407;56.964;-2.212;2023-07-31T06:23:30;3.27;;;2.07;;
22480;SDS011;11407;56.964;-2.212;2023-07-31T06:25:55;4.80;;;1.90;;
22480;SDS011;11407;56.964;-2.212;2023-07-31T06:28:21;1.93;;;1.57;;
22480;SDS011;11407;56.964;-2.212;2023-07-31T06:30:46;5.07;;;1.63;;
22480;SDS011;11407;56.964;-2.212;2023-07-31T06:33:12;3.67;;;1.67;;
22480;SDS011;11407;56.964;-2.212;2023-07-31T06:35:37;4.43;;;1.70;;
22480;SDS011;11407;56.964;-2.212;2023-07-31T06:38:02;4.70;;;2.10;;
22480;SDS011;11407;56.964;-2.212;2023-07-31T06:40:28;2.97;;;2.00;;
22480;SDS011;11407;56.964;-2.212;2023-07-31T06:42:53;4.33;;;2.17;;
22480;SDS011;11407;56.964;-2.212;2023-07-31T06:45:18;5.97;;;2.17;;
22480;SDS011;11407;56.964;-2.212;2023-07-31T06:47:45;3.77;;;1.97;;
22480;SDS011;11407;56.964;-2.212;2023-07-31T06:50:11;3.87;;;2.10;;
22480;SDS011;11407;56.964;-2.212;2023-07-31T06:52:36;3.83;;;2.10;;
22480;SDS011;11407;56.964;-2.212;2023-07-31T06:55:02;6.63;;;1.90;;
22480;SDS011;11407;56.964;-2.212;2023-07-31T06:57:28;5.23;;;1.50;;
22480;SDS011;11407;56.964;-2.212;2023-07-31T06:59:53;2.23;;;1.30;;
22480;SDS011;11407;56.964;-2.212;2023-07-31T07:02:19;5.93;;;1.40;;
22480;SDS011;11407;56.964;-2.212;2023-07-31T07:04:44;2.23;;;1.10;;
22480;SDS011;11407;56.964;-2.212;2023-07-31T07:07:09;2.53;;;1.20;;
22480;SDS011;11407;56.964;-2.212;2023-07-31T07:09:36;3.57;;;1.40;;
22480;SDS011;11407;56.964;-2.212;2023-07-31T07:12:01;1.63;;;1.40;;
22480;SDS011;11407;56.964;-2.212;2023-07-31T07:14:26;2.93;;;1.33;;
22480;SDS011;11407;56.964;-2.212;2023-07-31T07:16:51;2.20;;;1.07;;
22480;SDS011;11407;56.964;-2.212;2023-07-31T07:19:17;2.10;;;1.10;;
22480;SDS011;11407;56.964;-2.212;2023-07-31T07:21:42;1.93;;;1.10;;
22480;SDS011;11407;56.964;-2.212;2023-07-31T07:24:07;2.10;;;1.37;;
22480;SDS011;11407;56.964;-2.212;2023-07-31T07:26:33;2.20;;;1.20;;
22480;SDS011;11407;56.964;-2.212;2023-07-31T07:28:58;2.10;;;1.00;;
22480;SDS011;11407;56.964;-2.212;2023-07-31T07:31:23;3.53;;;1.20;;
22480;SDS011;11407;56.964;-2.212;2023-07-31T07:33:48;3.93;;;1.40;;
22480;SDS011;11407;56.964;-2.212;2023-07-31T07:36:14;3.73;;;1.53;;
22480;SDS011;11407;56.964;-2.212;2023-07-31T07:38:39;2.53;;;1.30;;
22480;SDS011;11407;56.964;-2.212;2023-07-31T07:41:04;2.27;;;1.40;;
22480;SDS011;11407;56.964;-2.212;2023-07-31T07:43:29;4.07;;;1.50;;
22480;SDS011;11407;56.964;-2.212;2023-07-31T07:45:55;2.97;;;1.20;;
22480;SDS011;11407;56.964;-2.212;2023-07-31T07:48:20;2.23;;;1.27;;
22480;SDS011;11407;56.964;-2.212;2023-07-31T07:50:46;3.30;;;1.40;;
22480;SDS011;11407;56.964;-2.212;2023-07-31T07:53:11;5.20;;;1.40;;
22480;SDS011;11407;56.964;-2.212;2023-07-31T07:55:36;1.80;;;1.37;;
22480;SDS011;11407;56.964;-2.212;2023-07-31T07:58:02;3.07;;;1.50;;
22480;SDS011;11407;56.964;-2.212;2023-07-31T08:00:27;2.10;;;1.30;;
22480;SDS011;11407;56.964;-2.212;2023-07-31T08:02:52;1.70;;;1.30;;
22480;SDS011;11407;56.964;-2.212;2023-07-31T08:05:17;2.47;;;1.50;;
22480;SDS011;11407;56.964;-2.212;2023-07-31T08:07:43;3.63;;;1.33;;
22480;SDS011;11407;56.964;-2.212;2023-07-31T08:10:08;1.73;;;1.20;;
22480;SDS011;11407;56.964;-2.212;2023-07-31T08:12:33;4.07;;;1.30;;
22480;SDS011;11407;56.964;-2.212;2023-07-31T08:14:58;2.80;;;1.23;;
22480;SDS011;11407;56.964;-2.212;2023-07-31T08:17:25;2.13;;;1.03;;
22480;SDS011;11407;56.964;-2.212;2023-07-31T08:19:50;3.23;;;1.57;;
22480;SDS011;11407;56.964;-2.212;2023-07-31T08:22:15;1.87;;;0.93;;
22480;SDS011;11407;56.964;-2.212;2023-07-31T08:24:41;3.43;;;1.10;;
22480;SDS011;11407;56.964;-2.212;2023-07-31T08:27:06;3.40;;;1.20;;
22480;SDS011;11407;56.964;-2.212;2023-07-31T08:29:31;3.33;;;1.10;;
22480;SDS011;11407;56.964;-2.212;2023-07-31T08:31:56;2.37;;;1.20;;
22480;SDS011;11407;56.964;-2.212;2023-07-31T08:34:22;3.43;;;1.33;;
22480;SDS011;11407;56.964;-2.212;2023-07-31T08:36:47;4.73;;;1.37;;
22480;SDS011;11407;56.964;-2.212;2023-07-31T08:39:12;3.83;;;1.47;;
22480;SDS011;11407;56.964;-2.212;2023-07-31T08:41:40;3.47;;;1.47;;
22480;SDS011;11407;56.964;-2.212;2023-07-31T08:44:08;3.33;;;1.73;;
22480;SDS011;11407;56.964;-2.212;2023-07-31T08:46:35;3.10;;;1.40;;
22480;SDS011;11407;56.964;-2.212;2023-07-31T08:49:00;2.00;;;1.40;;
22480;SDS011;11407;56.964;-2.212;2023-07-31T08:51:29;4.03;;;2.00;;
22480;SDS011;11407;56.964;-2.212;2023-07-31T08:53:54;3.07;;;1.40;;
22480;SDS011;11407;56.964;-2.212;2023-07-31T08:56:20;2.77;;;1.40;;
22480;SDS011;11407;56.964;-2.212;2023-07-31T08:58:45;2.30;;;1.60;;
22480;SDS011;11407;56.964;-2.212;2023-07-31T09:01:11;3.03;;;1.60;;
22480;SDS011;11407;56.964;-2.212;2023-07-31T09:03:36;3.43;;;1.20;;
22480;SDS011;11407;56.964;-2.212;2023-07-31T09:06:04;4.23;;;1.40;;
22480;SDS011;11407;56.964;-2.212;2023-07-31T09:08:31;3.47;;;1.70;;
22480;SDS011;11407;56.964;-2.212;2023-07-31T09:11:02;3.03;;;1.30;;
22480;SDS011;11407;56.964;-2.212;2023-07-31T09:13:30;3.53;;;1.43;;
22480;SDS011;11407;56.964;-2.212;2023-07-31T09:15:56;5.17;;;1.40;;
22480;SDS011;11407;56.964;-2.212;2023-07-31T09:18:21;3.60;;;1.60;;
22480;SDS011;11407;56.964;-2.212;2023-07-31T09:21:00;3.47;;;1.70;;
22480;SDS011;11407;56.964;-2.212;2023-07-31T09:23:26;3.37;;;1.70;;
22480;SDS011;11407;56.964;-2.212;2023-07-31T09:25:51;3.83;;;1.50;;
22480;SDS011;11407;56.964;-2.212;2023-07-31T09:28:16;4.87;;;1.83;;
22480;SDS011;11407;56.964;-2.212;2023-07-31T09:30:46;3.53;;;1.93;;
22480;SDS011;11407;56.964;-2.212;2023-07-31T09:33:12;3.33;;;1.60;;
22480;SDS011;11407;56.964;-2.212;2023-07-31T09:35:37;3.23;;;1.47;;
22480;SDS011;11407;56.964;-2.212;2023-07-31T09:38:03;3.87;;;1.60;;
22480;SDS011;11407;56.964;-2.212;2023-07-31T09:43:01;2.23;;;1.60;;
22480;SDS011;11407;56.964;-2.212;2023-07-31T09:45:27;1.63;;;1.40;;
22480;SDS011;11407;56.964;-2.212;2023-07-31T09:47:53;2.87;;;1.47;;
22480;SDS011;11407;56.964;-2.212;2023-07-31T09:50:19;2.23;;;1.80;;
22480;SDS011;11407;56.964;-2.212;2023-07-31T09:52:45;3.87;;;1.67;;
22480;SDS011;11407;56.964;-2.212;2023-07-31T09:55:10;8.13;;;3.43;;
22480;SDS011;11407;56.964;-2.212;2023-07-31T09:57:43;4.17;;;2.53;;
22480;SDS011;11407;56.964;-2.212;2023-07-31T10:00:09;6.97;;;2.40;;
22480;SDS011;11407;56.964;-2.212;2023-07-31T10:02:35;4.63;;;1.70;;
22480;SDS011;11407;56.964;-2.212;2023-07-31T10:05:02;5.77;;;1.57;;
22480;SDS011;11407;56.964;-2.212;2023-07-31T10:07:27;3.70;;;1.50;;
22480;SDS011;11407;56.964;-2.212;2023-07-31T10:09:55;3.67;;;1.50;;
22480;SDS011;11407;56.964;-2.212;2023-07-31T10:12:21;4.63;;;1.67;;
22480;SDS011;11407;56.964;-2.212;2023-07-31T10:14:49;3.17;;;1.47;;
22480;SDS011;11407;56.964;-2.212;2023-07-31T10:17:15;3.53;;;1.50;;
22480;SDS011;11407;56.964;-2.212;2023-07-31T10:19:42;4.30;;;1.40;;
22480;SDS011;11407;56.964;-2.212;2023-07-31T10:22:08;2.27;;;1.60;;
22480;SDS011;11407;56.964;-2.212;2023-07-31T10:24:34;3.63;;;1.47;;
22480;SDS011;11407;56.964;-2.212;2023-07-31T10:27:00;2.13;;;1.40;;
22480;SDS011;11407;56.964;-2.212;2023-07-31T10:29:26;3.60;;;1.83;;
22480;SDS011;11407;56.964;-2.212;2023-07-31T10:31:52;4.13;;;1.60;;
22480;SDS011;11407;56.964;-2.212;2023-07-31T10:34:18;3.17;;;2.00;;
22480;SDS011;11407;56.964;-2.212;2023-07-31T10:36:43;3.10;;;1.60;;
22480;SDS011;11407;56.964;-2.212;2023-07-31T10:39:53;4.47;;;2.00;;
22480;SDS011;11407;56.964;-2.212;2023-07-31T10:41:54;3.77;;;1.80;;
22480;SDS011;11407;56.964;-2.212;2023-07-31T10:44:19;6.73;;;1.77;;
22480;SDS011;11407;56.964;-2.212;2023-07-31T10:46:45;3.63;;;1.80;;
22480;SDS011;11407;56.964;-2.212;2023-07-31T10:49:12;2.07;;;1.57;;
22480;SDS011;11407;56.964;-2.212;2023-07-31T10:51:46;5.77;;;1.80;;
22480;SDS011;11407;56.964;-2.212;2023-07-31T10:54:12;3.77;;;1.73;;
22480;SDS011;11407;56.964;-2.212;2023-07-31T10:56:38;6.50;;;1.70;;
22480;SDS011;11407;56.964;-2.212;2023-07-31T10:59:04;3.33;;;1.40;;
22480;SDS011;11407;56.964;-2.212;2023-07-31T11:04:13;3.17;;;1.60;;
22480;SDS011;11407;56.964;-2.212;2023-07-31T11:06:38;4.70;;;1.80;;
22480;SDS011;11407;56.964;-2.212;2023-07-31T11:09:04;3.43;;;2.13;;
22480;SDS011;11407;56.964;-2.212;2023-07-31T11:11:30;5.13;;;1.77;;
22480;SDS011;11407;56.964;-2.212;2023-07-31T11:13:56;5.67;;;1.90;;
22480;SDS011;11407;56.964;-2.212;2023-07-31T11:16:22;4.27;;;1.73;;
22480;SDS011;11407;56.964;-2.212;2023-07-31T11:18:47;3.30;;;1.60;;
22480;SDS011;11407;56.964;-2.212;2023-07-31T11:23:39;4.60;;;1.97;;
22480;SDS011;11407;56.964;-2.212;2023-07-31T11:26:05;2.53;;;1.80;;
22480;SDS011;11407;56.964;-2.212;2023-07-31T11:28:34;4.33;;;1.80;;
22480;SDS011;11407;56.964;-2.212;2023-07-31T11:30:59;4.23;;;1.83;;
22480;SDS011;11407;56.964;-2.212;2023-07-31T11:33:25;3.23;;;1.50;;
22480;SDS011;11407;56.964;-2.212;2023-07-31T11:35:50;5.97;;;1.70;;
22480;SDS011;11407;56.964;-2.212;2023-07-31T11:38:25;4.30;;;1.97;;
22480;SDS011;11407;56.964;-2.212;2023-07-31T11:40:51;3.73;;;1.80;;
22480;SDS011;11407;56.964;-2.212;2023-07-31T11:43:17;2.93;;;1.60;;
22480;SDS011;11407;56.964;-2.212;2023-07-31T11:45:46;3.20;;;1.37;;
22480;SDS011;11407;56.964;-2.212;2023-07-31T11:48:18;2.47;;;1.43;;
22480;SDS011;11407;56.964;-2.212;2023-07-31T11:50:43;2.80;;;1.43;;
22480;SDS011;11407;56.964;-2.212;2023-07-31T11:53:11;2.53;;;1.47;;
22480;SDS011;11407;56.964;-2.212;2023-07-31T11:55:37;3.57;;;1.83;;
22480;SDS011;11407;56.964;-2.212;2023-07-31T11:58:02;4.07;;;1.90;;
22480;SDS011;11407;56.964;-2.212;2023-07-31T12:00:27;5.23;;;2.07;;
22480;SDS011;11407;56.964;-2.212;2023-07-31T12:02:53;4.27;;;1.77;;
22480;SDS011;11407;56.964;-2.212;2023-07-31T12:05:18;4.03;;;1.70;;
22480;SDS011;11407;56.964;-2.212;2023-07-31T12:07:50;4.27;;;1.50;;
22480;SDS011;11407;56.964;-2.212;2023-07-31T12:10:29;5.90;;;1.90;;
22480;SDS011;11407;56.964;-2.212;2023-07-31T12:12:58;4.47;;;1.50;;
22480;SDS011;11407;56.964;-2.212;2023-07-31T12:15:37;2.83;;;1.80;;
22480;SDS011;11407;56.964;-2.212;2023-07-31T12:18:20;4.17;;;1.80;;
22480;SDS011;11407;56.964;-2.212;2023-07-31T12:20:56;6.33;;;2.00;;
22480;SDS011;11407;56.964;-2.212;2023-07-31T12:23:26;3.13;;;1.70;;
22480;SDS011;11407;56.964;-2.212;2023-07-31T12:28:26;4.27;;;1.70;;
22480;SDS011;11407;56.964;-2.212;2023-07-31T12:30:51;5.50;;;2.20;;
22480;SDS011;11407;56.964;-2.212;2023-07-31T12:33:18;5.43;;;1.93;;
22480;SDS011;11407;56.964;-2.212;2023-07-31T12:35:44;7.73;;;2.10;;
22480;SDS011;11407;56.964;-2.212;2023-07-31T12:38:10;4.43;;;1.90;;
22480;SDS011;11407;56.964;-2.212;2023-07-31T12:40:38;9.03;;;2.20;;
22480;SDS011;11407;56.964;-2.212;2023-07-31T12:43:04;8.43;;;2.03;;
22480;SDS011;11407;56.964;-2.212;2023-07-31T12:45:29;8.23;;;2.17;;
22480;SDS011;11407;56.964;-2.212;2023-07-31T12:47:55;7.33;;;2.00;;
22480;SDS011;11407;56.964;-2.212;2023-07-31T12:50:21;10.13;;;2.63;;
22480;SDS011;11407;56.964;-2.212;2023-07-31T12:52:46;13.57;;;2.70;;
22480;SDS011;11407;56.964;-2.212;2023-07-31T12:55:11;9.30;;;2.57;;
22480;SDS011;11407;56.964;-2.212;2023-07-31T12:57:36;7.00;;;2.43;;
22480;SDS011;11407;56.964;-2.212;2023-07-31T13:00:02;12.83;;;2.40;;
22480;SDS011;11407;56.964;-2.212;2023-07-31T13:02:28;9.90;;;2.50;;
22480;SDS011;11407;56.964;-2.212;2023-07-31T13:04:53;6.53;;;2.07;;
22480;SDS011;11407;56.964;-2.212;2023-07-31T13:07:19;7.93;;;2.67;;
22480;SDS011;11407;56.964;-2.212;2023-07-31T13:09:44;6.43;;;2.13;;
22480;SDS011;11407;56.964;-2.212;2023-07-31T13:12:09;5.07;;;2.27;;
22480;SDS011;11407;56.964;-2.212;2023-07-31T13:14:35;6.53;;;1.80;;
22480;SDS011;11407;56.964;-2.212;2023-07-31T13:17:00;9.67;;;2.00;;
22480;SDS011;11407;56.964;-2.212;2023-07-31T13:19:25;7.80;;;2.03;;
22480;SDS011;11407;56.964;-2.212;2023-07-31T13:21:50;3.87;;;1.60;;
22480;SDS011;11407;56.964;-2.212;2023-07-31T13:24:16;5.60;;;1.93;;
22480;SDS011;11407;56.964;-2.212;2023-07-31T13:26:41;5.87;;;1.83;;
22480;SDS011;11407;56.964;-2.212;2023-07-31T13:29:06;3.40;;;1.60;;
22480;SDS011;11407;56.964;-2.212;2023-07-31T13:31:31;8.53;;;2.20;;
22480;SDS011;11407;56.964;-2.212;2023-07-31T13:33:57;4.17;;;1.77;;
22480;SDS011;11407;56.964;-2.212;2023-07-31T13:36:22;4.97;;;1.70;;
22480;SDS011;11407;56.964;-2.212;2023-07-31T13:38:47;8.40;;;2.37;;
22480;SDS011;11407;56.964;-2.212;2023-07-31T13:41:12;7.30;;;2.17;;
22480;SDS011;11407;56.964;-2.212;2023-07-31T13:43:38;11.63;;;2.30;;
22480;SDS011;11407;56.964;-2.212;2023-07-31T13:46:03;8.37;;;2.30;;
22480;SDS011;11407;56.964;-2.212;2023-07-31T13:48:32;9.97;;;3.03;;
22480;SDS011;11407;56.964;-2.212;2023-07-31T13:50:58;9.80;;;2.30;;
22480;SDS011;11407;56.964;-2.212;2023-07-31T13:53:23;10.30;;;2.57;;
22480;SDS011;11407;56.964;-2.212;2023-07-31T13:55:48;10.13;;;2.17;;
22480;SDS011;11407;56.964;-2.212;2023-07-31T13:58:14;11.17;;;2.50;;
22480;SDS011;11407;56.964;-2.212;2023-07-31T14:00:39;9.10;;;2.33;;
22480;SDS011;11407;56.964;-2.212;2023-07-31T14:03:04;9.10;;;2.67;;
22480;SDS011;11407;56.964;-2.212;2023-07-31T14:05:30;9.17;;;2.60;;
22480;SDS011;11407;56.964;-2.212;2023-07-31T14:07:55;9.20;;;2.63;;
22480;SDS011;11407;56.964;-2.212;2023-07-31T14:10:20;13.73;;;3.10;;
22480;SDS011;11407;56.964;-2.212;2023-07-31T14:12:46;12.67;;;2.97;;
22480;SDS011;11407;56.964;-2.212;2023-07-31T14:15:11;10.47;;;2.43;;
22480;SDS011;11407;56.964;-2.212;2023-07-31T14:17:36;6.43;;;2.60;;
22480;SDS011;11407;56.964;-2.212;2023-07-31T14:20:02;10.10;;;2.57;;
22480;SDS011;11407;56.964;-2.212;2023-07-31T14:22:28;9.83;;;2.70;;
22480;SDS011;11407;56.964;-2.212;2023-07-31T14:24:54;10.47;;;2.47;;
22480;SDS011;11407;56.964;-2.212;2023-07-31T14:27:19;10.43;;;2.70;;
22480;SDS011;11407;56.964;-2.212;2023-07-31T14:29:44;14.70;;;3.43;;
22480;SDS011;11407;56.964;-2.212;2023-07-31T14:32:10;13.77;;;2.37;;
22480;SDS011;11407;56.964;-2.212;2023-07-31T14:34:35;12.83;;;2.83;;
22480;SDS011;11407;56.964;-2.212;2023-07-31T14:37:00;9.97;;;2.93;;
22480;SDS011;11407;56.964;-2.212;2023-07-31T14:39:25;15.07;;;3.00;;
22480;SDS011;11407;56.964;-2.212;2023-07-31T14:41:51;10.13;;;2.70;;